sensor_id;sensor_type;location;lat;lon;timestamp;P1;durP1;ratioP1;P2;durP2;ratioP2
1262;SDS011;62267;50.112;8.704;2023-05-10T00:00:55;4.30;;;3.90;;
1262;SDS011;62267;50.112;8.704;2023-05-10T00:03:23;3.53;;;3.23;;
1262;SDS011;62267;50.112;8.704;2023-05-10T00:05:50;3.87;;;3.57;;
1262;SDS011;62267;50.112;8.704;2023-05-10T00:08:18;3.50;;;3.20;;
1262;SDS011;62267;50.112;8.704;2023-05-10T00:10:46;3.97;;;2.83;;
1262;SDS011;62267;50.112;8.704;2023-05-10T00:13:15;2.93;;;2.73;;
1262;SDS011;62267;50.112;8.704;2023-05-10T00:15:42;3.10;;;2.80;;
1262;SDS011;62267;50.112;8.704;2023-05-10T00:18:10;2.83;;;2.63;;
1262;SDS011;62267;50.112;8.704;2023-05-10T00:20:37;2.80;;;2.63;;
1262;SDS011;62267;50.112;8.704;2023-05-10T00:23:04;2.97;;;2.70;;
1262;SDS011;62267;50.112;8.704;2023-05-10T00:25:32;3.90;;;3.50;;
1262;SDS011;62267;50.112;8.704;2023-05-10T00:27:59;2.17;;;2.07;;
1262;SDS011;62267;50.112;8.704;2023-05-10T00:30:28;3.60;;;2.20;;
1262;SDS011;62267;50.112;8.704;2023-05-10T00:32:55;2.37;;;2.27;;
1262;SDS011;62267;50.112;8.704;2023-05-10T00:35:23;2.30;;;2.03;;
1262;SDS011;62267;50.112;8.704;2023-05-10T00:37:50;2.80;;;2.13;;
1262;SDS011;62267;50.112;8.704;2023-05-10T00:40:20;3.43;;;2.20;;
1262;SDS011;62267;50.112;8.704;2023-05-10T00:42:52;2.00;;;1.90;;
1262;SDS011;62267;50.112;8.704;2023-05-10T00:45:20;2.00;;;1.90;;
1262;SDS011;62267;50.112;8.704;2023-05-10T00:47:48;1.87;;;1.77;;
1262;SDS011;62267;50.112;8.704;2023-05-10T00:50:16;2.30;;;2.20;;
1262;SDS011;62267;50.112;8.704;2023-05-10T00:52:43;3.67;;;1.87;;
1262;SDS011;62267;50.112;8.704;2023-05-10T00:55:11;1.90;;;1.80;;
1262;SDS011;62267;50.112;8.704;2023-05-10T00:57:40;1.60;;;1.50;;
1262;SDS011;62267;50.112;8.704;2023-05-10T01:00:08;1.50;;;1.40;;
1262;SDS011;62267;50.112;8.704;2023-05-10T01:02:40;1.80;;;1.70;;
1262;SDS011;62267;50.112;8.704;2023-05-10T01:05:08;1.80;;;1.67;;
1262;SDS011;62267;50.112;8.704;2023-05-10T01:07:36;4.03;;;1.90;;
1262;SDS011;62267;50.112;8.704;2023-05-10T01:10:07;1.50;;;1.40;;
1262;SDS011;62267;50.112;8.704;2023-05-10T01:12:35;1.60;;;1.50;;
1262;SDS011;62267;50.112;8.704;2023-05-10T01:15:05;1.70;;;1.60;;
1262;SDS011;62267;50.112;8.704;2023-05-10T01:17:32;2.03;;;1.70;;
1262;SDS011;62267;50.112;8.704;2023-05-10T01:20:01;1.97;;;1.70;;
1262;SDS011;62267;50.112;8.704;2023-05-10T01:30:05;4.23;;;1.70;;
1262;SDS011;62267;50.112;8.704;2023-05-10T01:32:49;2.00;;;1.80;;
1262;SDS011;62267;50.112;8.704;2023-05-10T01:37:52;1.80;;;1.70;;
1262;SDS011;62267;50.112;8.704;2023-05-10T01:40:40;1.50;;;1.40;;
1262;SDS011;62267;50.112;8.704;2023-05-10T01:43:11;1.70;;;1.60;;
1262;SDS011;62267;50.112;8.704;2023-05-10T01:48:22;2.00;;;1.80;;
1262;SDS011;62267;50.112;8.704;2023-05-10T01:50:50;1.90;;;1.80;;
1262;SDS011;62267;50.112;8.704;2023-05-10T01:53:18;2.13;;;1.70;;
1262;SDS011;62267;50.112;8.704;2023-05-10T01:55:47;2.23;;;2.03;;
1262;SDS011;62267;50.112;8.704;2023-05-10T01:58:20;2.10;;;1.90;;
1262;SDS011;62267;50.112;8.704;2023-05-10T02:00:48;1.60;;;1.50;;
1262;SDS011;62267;50.112;8.704;2023-05-10T02:03:18;2.07;;;1.97;;
1262;SDS011;62267;50.112;8.704;2023-05-10T02:05:48;1.70;;;1.60;;
1262;SDS011;62267;50.112;8.704;2023-05-10T02:08:17;1.60;;;1.50;;
1262;SDS011;62267;50.112;8.704;2023-05-10T02:10:45;2.03;;;1.83;;
1262;SDS011;62267;50.112;8.704;2023-05-10T02:13:14;1.90;;;1.80;;
1262;SDS011;62267;50.112;8.704;2023-05-10T02:15:43;1.83;;;1.73;;
1262;SDS011;62267;50.112;8.704;2023-05-10T02:18:14;1.80;;;1.70;;
1262;SDS011;62267;50.112;8.704;2023-05-10T02:20:43;2.17;;;1.83;;
1262;SDS011;62267;50.112;8.704;2023-05-10T02:23:11;1.97;;;1.73;;
1262;SDS011;62267;50.112;8.704;2023-05-10T02:25:39;1.90;;;1.80;;
1262;SDS011;62267;50.112;8.704;2023-05-10T02:28:07;2.00;;;1.90;;
1262;SDS011;62267;50.112;8.704;2023-05-10T02:30:35;1.73;;;1.63;;
1262;SDS011;62267;50.112;8.704;2023-05-10T02:33:04;1.90;;;1.70;;
1262;SDS011;62267;50.112;8.704;2023-05-10T02:35:32;1.87;;;1.77;;
1262;SDS011;62267;50.112;8.704;2023-05-10T02:38:01;2.00;;;1.90;;
1262;SDS011;62267;50.112;8.704;2023-05-10T02:40:30;2.37;;;2.17;;
1262;SDS011;62267;50.112;8.704;2023-05-10T02:42:57;1.90;;;1.80;;
1262;SDS011;62267;50.112;8.704;2023-05-10T02:45:27;2.13;;;2.03;;
1262;SDS011;62267;50.112;8.704;2023-05-10T02:47:55;1.90;;;1.70;;
1262;SDS011;62267;50.112;8.704;2023-05-10T02:50:23;2.00;;;1.80;;
1262;SDS011;62267;50.112;8.704;2023-05-10T02:52:54;2.00;;;1.90;;
1262;SDS011;62267;50.112;8.704;2023-05-10T02:55:22;2.40;;;2.20;;
1262;SDS011;62267;50.112;8.704;2023-05-10T02:57:54;3.03;;;1.80;;
1262;SDS011;62267;50.112;8.704;2023-05-10T03:00:24;3.30;;;1.73;;
1262;SDS011;62267;50.112;8.704;2023-05-10T03:02:51;2.07;;;1.97;;
1262;SDS011;62267;50.112;8.704;2023-05-10T03:05:20;2.10;;;2.00;;
1262;SDS011;62267;50.112;8.704;2023-05-10T03:07:47;2.07;;;1.97;;
1262;SDS011;62267;50.112;8.704;2023-05-10T03:10:15;1.87;;;1.77;;
1262;SDS011;62267;50.112;8.704;2023-05-10T03:18:07;4.60;;;2.30;;
1262;SDS011;62267;50.112;8.704;2023-05-10T03:20:57;2.03;;;1.93;;
1262;SDS011;62267;50.112;8.704;2023-05-10T03:23:34;1.87;;;1.77;;
1262;SDS011;62267;50.112;8.704;2023-05-10T03:26:02;2.40;;;1.93;;
1262;SDS011;62267;50.112;8.704;2023-05-10T03:28:30;2.67;;;2.00;;
1262;SDS011;62267;50.112;8.704;2023-05-10T03:30:58;2.27;;;2.17;;
1262;SDS011;62267;50.112;8.704;2023-05-10T03:33:28;2.17;;;2.07;;
1262;SDS011;62267;50.112;8.704;2023-05-10T03:35:56;2.60;;;2.40;;
1262;SDS011;62267;50.112;8.704;2023-05-10T03:38:23;2.37;;;1.90;;
1262;SDS011;62267;50.112;8.704;2023-05-10T03:40:50;2.07;;;1.97;;
1262;SDS011;62267;50.112;8.704;2023-05-10T03:43:18;2.67;;;1.93;;
1262;SDS011;62267;50.112;8.704;2023-05-10T03:45:46;2.00;;;1.90;;
1262;SDS011;62267;50.112;8.704;2023-05-10T03:48:13;2.43;;;2.33;;
1262;SDS011;62267;50.112;8.704;2023-05-10T03:50:41;2.20;;;1.93;;
1262;SDS011;62267;50.112;8.704;2023-05-10T03:53:09;1.80;;;1.70;;
1262;SDS011;62267;50.112;8.704;2023-05-10T03:55:36;2.50;;;2.30;;
1262;SDS011;62267;50.112;8.704;2023-05-10T03:58:03;2.70;;;2.50;;
1262;SDS011;62267;50.112;8.704;2023-05-10T04:00:31;2.50;;;2.30;;
1262;SDS011;62267;50.112;8.704;2023-05-10T04:02:59;2.60;;;2.27;;
1262;SDS011;62267;50.112;8.704;2023-05-10T04:05:27;2.50;;;2.30;;
1262;SDS011;62267;50.112;8.704;2023-05-10T04:07:54;2.43;;;2.23;;
1262;SDS011;62267;50.112;8.704;2023-05-10T04:10:21;2.50;;;2.40;;
1262;SDS011;62267;50.112;8.704;2023-05-10T04:12:48;2.50;;;2.10;;
1262;SDS011;62267;50.112;8.704;2023-05-10T04:15:15;2.70;;;2.33;;
1262;SDS011;62267;50.112;8.704;2023-05-10T04:17:43;2.50;;;2.30;;
1262;SDS011;62267;50.112;8.704;2023-05-10T04:20:10;4.87;;;2.80;;
1262;SDS011;62267;50.112;8.704;2023-05-10T04:22:38;2.80;;;2.60;;
1262;SDS011;62267;50.112;8.704;2023-05-10T04:25:05;3.87;;;3.03;;
1262;SDS011;62267;50.112;8.704;2023-05-10T04:27:33;4.83;;;2.80;;
1262;SDS011;62267;50.112;8.704;2023-05-10T04:30:00;3.87;;;3.00;;
1262;SDS011;62267;50.112;8.704;2023-05-10T04:32:29;5.13;;;2.60;;
1262;SDS011;62267;50.112;8.704;2023-05-10T04:34:56;2.53;;;2.40;;
1262;SDS011;62267;50.112;8.704;2023-05-10T04:37:24;2.40;;;2.30;;
1262;SDS011;62267;50.112;8.704;2023-05-10T04:39:51;2.60;;;2.40;;
1262;SDS011;62267;50.112;8.704;2023-05-10T04:42:19;2.80;;;2.60;;
1262;SDS011;62267;50.112;8.704;2023-05-10T04:44:46;3.00;;;2.80;;
1262;SDS011;62267;50.112;8.704;2023-05-10T04:47:14;3.33;;;3.03;;
1262;SDS011;62267;50.112;8.704;2023-05-10T04:49:42;2.83;;;2.70;;
1262;SDS011;62267;50.112;8.704;2023-05-10T04:52:09;5.93;;;2.90;;
1262;SDS011;62267;50.112;8.704;2023-05-10T04:54:37;3.20;;;2.90;;
1262;SDS011;62267;50.112;8.704;2023-05-10T04:57:05;3.07;;;2.87;;
1262;SDS011;62267;50.112;8.704;2023-05-10T04:59:32;2.83;;;2.73;;
1262;SDS011;62267;50.112;8.704;2023-05-10T05:01:59;3.27;;;3.00;;
1262;SDS011;62267;50.112;8.704;2023-05-10T05:04:27;3.30;;;2.53;;
1262;SDS011;62267;50.112;8.704;2023-05-10T05:06:54;2.87;;;2.67;;
1262;SDS011;62267;50.112;8.704;2023-05-10T05:09:22;3.00;;;2.80;;
1262;SDS011;62267;50.112;8.704;2023-05-10T05:11:49;3.37;;;3.07;;
1262;SDS011;62267;50.112;8.704;2023-05-10T05:14:17;3.20;;;2.90;;
1262;SDS011;62267;50.112;8.704;2023-05-10T05:16:44;7.00;;;3.10;;
1262;SDS011;62267;50.112;8.704;2023-05-10T05:19:11;3.43;;;3.00;;
1262;SDS011;62267;50.112;8.704;2023-05-10T05:21:38;3.20;;;3.00;;
1262;SDS011;62267;50.112;8.704;2023-05-10T05:24:06;4.70;;;3.00;;
1262;SDS011;62267;50.112;8.704;2023-05-10T05:26:34;3.23;;;2.80;;
1262;SDS011;62267;50.112;8.704;2023-05-10T05:29:01;3.60;;;3.30;;
1262;SDS011;62267;50.112;8.704;2023-05-10T05:31:29;4.43;;;3.10;;
1262;SDS011;62267;50.112;8.704;2023-05-10T05:33:56;3.63;;;3.27;;
1262;SDS011;62267;50.112;8.704;2023-05-10T05:36:24;3.70;;;3.40;;
1262;SDS011;62267;50.112;8.704;2023-05-10T05:38:51;5.83;;;3.70;;
1262;SDS011;62267;50.112;8.704;2023-05-10T05:41:18;4.17;;;3.77;;
1262;SDS011;62267;50.112;8.704;2023-05-10T05:43:46;4.23;;;3.83;;
1262;SDS011;62267;50.112;8.704;2023-05-10T05:46:13;4.43;;;4.03;;
1262;SDS011;62267;50.112;8.704;2023-05-10T05:48:40;3.80;;;3.47;;
1262;SDS011;62267;50.112;8.704;2023-05-10T05:51:09;4.70;;;4.30;;
1262;SDS011;62267;50.112;8.704;2023-05-10T05:53:36;5.33;;;4.17;;
1262;SDS011;62267;50.112;8.704;2023-05-10T05:56:04;4.40;;;4.10;;
1262;SDS011;62267;50.112;8.704;2023-05-10T05:58:31;5.70;;;3.90;;
1262;SDS011;62267;50.112;8.704;2023-05-10T06:00:59;4.60;;;4.20;;
1262;SDS011;62267;50.112;8.704;2023-05-10T06:03:26;6.10;;;4.90;;
1262;SDS011;62267;50.112;8.704;2023-05-10T06:05:54;5.53;;;4.53;;
1262;SDS011;62267;50.112;8.704;2023-05-10T06:08:21;7.73;;;4.00;;
1262;SDS011;62267;50.112;8.704;2023-05-10T06:10:50;4.83;;;3.97;;
1262;SDS011;62267;50.112;8.704;2023-05-10T06:13:17;4.27;;;3.53;;
1262;SDS011;62267;50.112;8.704;2023-05-10T06:15:44;4.13;;;3.83;;
1262;SDS011;62267;50.112;8.704;2023-05-10T06:18:12;4.47;;;4.03;;
1262;SDS011;62267;50.112;8.704;2023-05-10T06:20:40;4.57;;;4.17;;
1262;SDS011;62267;50.112;8.704;2023-05-10T06:23:08;4.37;;;4.00;;
1262;SDS011;62267;50.112;8.704;2023-05-10T06:25:35;4.50;;;4.10;;
1262;SDS011;62267;50.112;8.704;2023-05-10T06:28:03;9.87;;;4.20;;
1262;SDS011;62267;50.112;8.704;2023-05-10T06:30:30;4.40;;;4.10;;
1262;SDS011;62267;50.112;8.704;2023-05-10T06:32:58;5.03;;;4.60;;
1262;SDS011;62267;50.112;8.704;2023-05-10T06:35:25;5.43;;;4.60;;
1262;SDS011;62267;50.112;8.704;2023-05-10T06:37:54;4.40;;;3.90;;
1262;SDS011;62267;50.112;8.704;2023-05-10T06:40:22;4.70;;;4.20;;
1262;SDS011;62267;50.112;8.704;2023-05-10T06:42:51;4.63;;;3.83;;
1262;SDS011;62267;50.112;8.704;2023-05-10T06:45:18;4.93;;;4.40;;
1262;SDS011;62267;50.112;8.704;2023-05-10T06:47:46;4.73;;;4.30;;
1262;SDS011;62267;50.112;8.704;2023-05-10T06:50:13;6.90;;;4.60;;
1262;SDS011;62267;50.112;8.704;2023-05-10T06:52:41;4.43;;;4.03;;
1262;SDS011;62267;50.112;8.704;2023-05-10T06:55:09;4.57;;;4.17;;
1262;SDS011;62267;50.112;8.704;2023-05-10T06:57:37;5.20;;;4.70;;
1262;SDS011;62267;50.112;8.704;2023-05-10T07:00:04;4.57;;;4.13;;
1262;SDS011;62267;50.112;8.704;2023-05-10T07:02:32;5.47;;;4.87;;
1262;SDS011;62267;50.112;8.704;2023-05-10T07:04:59;4.90;;;4.50;;
1262;SDS011;62267;50.112;8.704;2023-05-10T07:07:29;5.40;;;5.00;;
1262;SDS011;62267;50.112;8.704;2023-05-10T07:09:56;7.90;;;4.67;;
1262;SDS011;62267;50.112;8.704;2023-05-10T07:12:24;5.13;;;4.63;;
1262;SDS011;62267;50.112;8.704;2023-05-10T07:14:51;5.10;;;4.60;;
1262;SDS011;62267;50.112;8.704;2023-05-10T07:17:19;7.23;;;4.13;;
1262;SDS011;62267;50.112;8.704;2023-05-10T07:19:47;6.53;;;4.50;;
1262;SDS011;62267;50.112;8.704;2023-05-10T07:22:15;5.83;;;5.20;;
1262;SDS011;62267;50.112;8.704;2023-05-10T07:24:42;6.03;;;4.90;;
1262;SDS011;62267;50.112;8.704;2023-05-10T07:27:10;6.60;;;4.87;;
1262;SDS011;62267;50.112;8.704;2023-05-10T07:29:37;4.90;;;4.50;;
1262;SDS011;62267;50.112;8.704;2023-05-10T07:32:06;4.70;;;4.30;;
1262;SDS011;62267;50.112;8.704;2023-05-10T07:34:33;7.07;;;4.47;;
1262;SDS011;62267;50.112;8.704;2023-05-10T07:37:00;4.77;;;4.33;;
1262;SDS011;62267;50.112;8.704;2023-05-10T07:39:28;4.90;;;4.40;;
1262;SDS011;62267;50.112;8.704;2023-05-10T07:41:55;9.10;;;4.53;;
1262;SDS011;62267;50.112;8.704;2023-05-10T07:44:23;6.97;;;4.90;;
1262;SDS011;62267;50.112;8.704;2023-05-10T07:46:50;4.53;;;4.10;;
1262;SDS011;62267;50.112;8.704;2023-05-10T07:49:17;4.10;;;3.80;;
1262;SDS011;62267;50.112;8.704;2023-05-10T07:51:45;6.87;;;4.70;;
1262;SDS011;62267;50.112;8.704;2023-05-10T07:54:12;7.23;;;5.00;;
1262;SDS011;62267;50.112;8.704;2023-05-10T07:56:39;4.00;;;3.70;;
1262;SDS011;62267;50.112;8.704;2023-05-10T07:59:15;4.90;;;4.40;;
1262;SDS011;62267;50.112;8.704;2023-05-10T08:01:43;7.63;;;5.17;;
1262;SDS011;62267;50.112;8.704;2023-05-10T08:04:11;8.27;;;4.10;;
1262;SDS011;62267;50.112;8.704;2023-05-10T08:06:40;6.90;;;4.20;;
1262;SDS011;62267;50.112;8.704;2023-05-10T08:09:08;6.10;;;4.80;;
1262;SDS011;62267;50.112;8.704;2023-05-10T08:11:35;6.33;;;4.83;;
1262;SDS011;62267;50.112;8.704;2023-05-10T08:14:02;4.40;;;4.00;;
1262;SDS011;62267;50.112;8.704;2023-05-10T08:16:29;5.07;;;4.60;;
1262;SDS011;62267;50.112;8.704;2023-05-10T08:18:57;4.97;;;4.10;;
1262;SDS011;62267;50.112;8.704;2023-05-10T08:21:24;5.57;;;4.70;;
1262;SDS011;62267;50.112;8.704;2023-05-10T08:23:53;4.20;;;3.80;;
1262;SDS011;62267;50.112;8.704;2023-05-10T08:26:21;4.83;;;4.27;;
1262;SDS011;62267;50.112;8.704;2023-05-10T08:28:48;5.70;;;4.10;;
1262;SDS011;62267;50.112;8.704;2023-05-10T08:31:15;5.50;;;4.30;;
1262;SDS011;62267;50.112;8.704;2023-05-10T08:33:43;4.90;;;4.17;;
1262;SDS011;62267;50.112;8.704;2023-05-10T08:36:11;6.70;;;4.70;;
1262;SDS011;62267;50.112;8.704;2023-05-10T08:38:40;7.30;;;4.67;;
1262;SDS011;62267;50.112;8.704;2023-05-10T08:41:07;10.40;;;4.47;;
1262;SDS011;62267;50.112;8.704;2023-05-10T08:43:35;6.00;;;4.43;;
1262;SDS011;62267;50.112;8.704;2023-05-10T08:46:04;4.57;;;4.07;;
1262;SDS011;62267;50.112;8.704;2023-05-10T08:48:32;5.23;;;4.73;;
1262;SDS011;62267;50.112;8.704;2023-05-10T08:51:01;4.70;;;4.30;;
1262;SDS011;62267;50.112;8.704;2023-05-10T08:53:29;4.80;;;4.30;;
1262;SDS011;62267;50.112;8.704;2023-05-10T08:55:58;4.93;;;4.53;;
1262;SDS011;62267;50.112;8.704;2023-05-10T08:58:27;6.33;;;3.70;;
1262;SDS011;62267;50.112;8.704;2023-05-10T09:00:55;6.20;;;4.27;;
1262;SDS011;62267;50.112;8.704;2023-05-10T09:03:22;5.13;;;4.03;;
1262;SDS011;62267;50.112;8.704;2023-05-10T09:05:50;4.60;;;4.20;;
1262;SDS011;62267;50.112;8.704;2023-05-10T09:08:17;7.97;;;4.03;;
1262;SDS011;62267;50.112;8.704;2023-05-10T09:10:46;4.00;;;3.70;;
1262;SDS011;62267;50.112;8.704;2023-05-10T09:13:14;6.77;;;4.40;;
1262;SDS011;62267;50.112;8.704;2023-05-10T09:15:43;5.50;;;5.00;;
1262;SDS011;62267;50.112;8.704;2023-05-10T09:18:10;4.43;;;3.77;;
1262;SDS011;62267;50.112;8.704;2023-05-10T09:20:37;5.47;;;3.97;;
1262;SDS011;62267;50.112;8.704;2023-05-10T09:23:06;6.27;;;4.10;;
1262;SDS011;62267;50.112;8.704;2023-05-10T09:25:33;8.60;;;5.80;;
1262;SDS011;62267;50.112;8.704;2023-05-10T09:28:01;4.23;;;3.83;;
1262;SDS011;62267;50.112;8.704;2023-05-10T09:30:29;7.37;;;4.10;;
1262;SDS011;62267;50.112;8.704;2023-05-10T09:32:58;4.33;;;3.90;;
1262;SDS011;62267;50.112;8.704;2023-05-10T09:35:29;4.83;;;3.90;;
1262;SDS011;62267;50.112;8.704;2023-05-10T09:37:58;6.97;;;6.33;;
1262;SDS011;62267;50.112;8.704;2023-05-10T09:40:27;7.73;;;4.83;;
1262;SDS011;62267;50.112;8.704;2023-05-10T09:42:55;4.10;;;3.40;;
1262;SDS011;62267;50.112;8.704;2023-05-10T09:45:23;3.93;;;3.63;;
1262;SDS011;62267;50.112;8.704;2023-05-10T09:47:51;4.80;;;3.40;;
1262;SDS011;62267;50.112;8.704;2023-05-10T09:50:19;7.00;;;4.70;;
1262;SDS011;62267;50.112;8.704;2023-05-10T09:52:57;5.27;;;3.73;;
1262;SDS011;62267;50.112;8.704;2023-05-10T09:55:26;5.33;;;3.13;;
1262;SDS011;62267;50.112;8.704;2023-05-10T09:58:00;5.07;;;3.20;;
1262;SDS011;62267;50.112;8.704;2023-05-10T10:00:28;3.03;;;2.83;;
1262;SDS011;62267;50.112;8.704;2023-05-10T10:03:01;3.87;;;3.57;;
1262;SDS011;62267;50.112;8.704;2023-05-10T10:05:30;4.37;;;3.27;;
1262;SDS011;62267;50.112;8.704;2023-05-10T10:07:57;4.50;;;2.80;;
1262;SDS011;62267;50.112;8.704;2023-05-10T10:10:25;3.53;;;3.23;;
1262;SDS011;62267;50.112;8.704;2023-05-10T10:12:53;5.23;;;3.70;;
1262;SDS011;62267;50.112;8.704;2023-05-10T10:15:21;4.17;;;3.87;;
1262;SDS011;62267;50.112;8.704;2023-05-10T10:17:49;4.87;;;3.63;;
1262;SDS011;62267;50.112;8.704;2023-05-10T10:20:18;4.43;;;4.03;;
1262;SDS011;62267;50.112;8.704;2023-05-10T10:22:46;4.73;;;4.33;;
1262;SDS011;62267;50.112;8.704;2023-05-10T10:25:14;6.10;;;4.00;;
1262;SDS011;62267;50.112;8.704;2023-05-10T10:30:13;4.90;;;4.40;;
1262;SDS011;62267;50.112;8.704;2023-05-10T10:35:45;5.13;;;4.60;;
1262;SDS011;62267;50.112;8.704;2023-05-10T10:38:13;5.07;;;4.60;;
1262;SDS011;62267;50.112;8.704;2023-05-10T10:40:40;6.00;;;4.77;;
1262;SDS011;62267;50.112;8.704;2023-05-10T10:43:27;6.67;;;4.23;;
1262;SDS011;62267;50.112;8.704;2023-05-10T10:48:41;5.90;;;4.50;;
1262;SDS011;62267;50.112;8.704;2023-05-10T10:51:08;4.30;;;3.23;;
1262;SDS011;62267;50.112;8.704;2023-05-10T10:53:39;3.70;;;3.40;;
1262;SDS011;62267;50.112;8.704;2023-05-10T10:56:07;5.20;;;3.77;;
1262;SDS011;62267;50.112;8.704;2023-05-10T10:58:36;2.80;;;2.60;;
1262;SDS011;62267;50.112;8.704;2023-05-10T11:03:38;3.43;;;2.37;;
1262;SDS011;62267;50.112;8.704;2023-05-10T11:06:05;2.50;;;2.30;;
1262;SDS011;62267;50.112;8.704;2023-05-10T11:08:39;6.43;;;4.10;;
1262;SDS011;62267;50.112;8.704;2023-05-10T11:11:09;2.93;;;2.73;;
1262;SDS011;62267;50.112;8.704;2023-05-10T11:13:40;3.80;;;3.50;;
1262;SDS011;62267;50.112;8.704;2023-05-10T11:16:15;4.40;;;3.70;;
1262;SDS011;62267;50.112;8.704;2023-05-10T11:18:51;3.37;;;2.93;;
1262;SDS011;62267;50.112;8.704;2023-05-10T11:21:19;4.77;;;4.37;;
1262;SDS011;62267;50.112;8.704;2023-05-10T11:26:14;2.67;;;2.47;;
1262;SDS011;62267;50.112;8.704;2023-05-10T11:28:45;3.13;;;2.80;;
1262;SDS011;62267;50.112;8.704;2023-05-10T11:31:18;3.00;;;2.80;;
1262;SDS011;62267;50.112;8.704;2023-05-10T11:33:47;3.97;;;3.27;;
1262;SDS011;62267;50.112;8.704;2023-05-10T11:36:16;5.47;;;2.73;;
1262;SDS011;62267;50.112;8.704;2023-05-10T11:38:44;2.93;;;2.57;;
1262;SDS011;62267;50.112;8.704;2023-05-10T11:41:11;2.40;;;2.30;;
1262;SDS011;62267;50.112;8.704;2023-05-10T11:43:39;3.67;;;3.37;;
1262;SDS011;62267;50.112;8.704;2023-05-10T11:46:07;3.07;;;2.87;;
1262;SDS011;62267;50.112;8.704;2023-05-10T11:48:35;4.93;;;2.93;;
1262;SDS011;62267;50.112;8.704;2023-05-10T11:51:02;2.87;;;2.67;;
1262;SDS011;62267;50.112;8.704;2023-05-10T11:53:31;2.90;;;2.70;;
1262;SDS011;62267;50.112;8.704;2023-05-10T11:56:08;5.70;;;3.00;;
1262;SDS011;62267;50.112;8.704;2023-05-10T11:58:36;2.80;;;2.60;;
1262;SDS011;62267;50.112;8.704;2023-05-10T12:01:04;3.20;;;2.90;;
1262;SDS011;62267;50.112;8.704;2023-05-10T12:03:31;3.93;;;3.30;;
1262;SDS011;62267;50.112;8.704;2023-05-10T12:05:59;3.40;;;2.93;;
1262;SDS011;62267;50.112;8.704;2023-05-10T12:08:28;4.80;;;2.83;;
1262;SDS011;62267;50.112;8.704;2023-05-10T12:11:06;6.30;;;5.27;;
1262;SDS011;62267;50.112;8.704;2023-05-10T12:13:39;3.77;;;3.30;;
1262;SDS011;62267;50.112;8.704;2023-05-10T12:16:13;3.17;;;2.93;;
1262;SDS011;62267;50.112;8.704;2023-05-10T12:18:41;3.80;;;3.27;;
1262;SDS011;62267;50.112;8.704;2023-05-10T12:21:12;3.10;;;2.90;;
1262;SDS011;62267;50.112;8.704;2023-05-10T12:23:39;2.70;;;2.60;;
1262;SDS011;62267;50.112;8.704;2023-05-10T12:26:08;4.60;;;3.47;;
1262;SDS011;62267;50.112;8.704;2023-05-10T12:28:36;4.80;;;3.73;;
1262;SDS011;62267;50.112;8.704;2023-05-10T12:31:05;3.40;;;3.10;;
1262;SDS011;62267;50.112;8.704;2023-05-10T12:33:43;3.63;;;3.33;;
1262;SDS011;62267;50.112;8.704;2023-05-10T12:36:15;3.50;;;3.07;;
1262;SDS011;62267;50.112;8.704;2023-05-10T12:38:43;5.63;;;3.57;;
1262;SDS011;62267;50.112;8.704;2023-05-10T12:41:11;3.77;;;3.40;;
1262;SDS011;62267;50.112;8.704;2023-05-10T12:43:39;3.80;;;3.17;;
1262;SDS011;62267;50.112;8.704;2023-05-10T12:46:14;2.87;;;2.67;;
1262;SDS011;62267;50.112;8.704;2023-05-10T12:48:42;2.20;;;2.10;;
1262;SDS011;62267;50.112;8.704;2023-05-10T12:51:10;8.53;;;3.10;;
1262;SDS011;62267;50.112;8.704;2023-05-10T12:53:43;2.67;;;2.50;;
1262;SDS011;62267;50.112;8.704;2023-05-10T12:56:14;2.43;;;2.30;;
1262;SDS011;62267;50.112;8.704;2023-05-10T12:58:42;3.23;;;2.93;;
1262;SDS011;62267;50.112;8.704;2023-05-10T13:01:14;3.33;;;2.87;;
1262;SDS011;62267;50.112;8.704;2023-05-10T13:03:41;2.77;;;2.57;;
1262;SDS011;62267;50.112;8.704;2023-05-10T13:06:12;2.20;;;2.10;;
1262;SDS011;62267;50.112;8.704;2023-05-10T13:08:40;2.50;;;2.30;;
1262;SDS011;62267;50.112;8.704;2023-05-10T13:11:07;2.60;;;2.40;;
1262;SDS011;62267;50.112;8.704;2023-05-10T13:13:34;2.37;;;2.27;;
1262;SDS011;62267;50.112;8.704;2023-05-10T13:16:01;4.67;;;2.30;;
1262;SDS011;62267;50.112;8.704;2023-05-10T13:18:29;2.10;;;2.00;;
1262;SDS011;62267;50.112;8.704;2023-05-10T13:20:56;2.70;;;2.53;;
1262;SDS011;62267;50.112;8.704;2023-05-10T13:23:23;2.60;;;2.30;;
1262;SDS011;62267;50.112;8.704;2023-05-10T13:25:51;2.10;;;2.00;;
1262;SDS011;62267;50.112;8.704;2023-05-10T13:28:18;2.60;;;2.20;;
1262;SDS011;62267;50.112;8.704;2023-05-10T13:30:45;3.13;;;2.10;;
1262;SDS011;62267;50.112;8.704;2023-05-10T13:33:12;2.40;;;2.30;;
1262;SDS011;62267;50.112;8.704;2023-05-10T13:35:40;2.17;;;2.07;;
1262;SDS011;62267;50.112;8.704;2023-05-10T13:38:07;2.70;;;2.33;;
1262;SDS011;62267;50.112;8.704;2023-05-10T13:40:34;2.40;;;2.23;;
1262;SDS011;62267;50.112;8.704;2023-05-10T13:43:02;2.20;;;2.10;;
1262;SDS011;62267;50.112;8.704;2023-05-10T13:45:29;2.33;;;2.13;;
1262;SDS011;62267;50.112;8.704;2023-05-10T13:47:56;2.50;;;2.30;;
1262;SDS011;62267;50.112;8.704;2023-05-10T13:50:23;2.43;;;2.10;;
1262;SDS011;62267;50.112;8.704;2023-05-10T13:52:51;3.47;;;2.47;;
1262;SDS011;62267;50.112;8.704;2023-05-10T13:55:18;3.70;;;2.30;;
1262;SDS011;62267;50.112;8.704;2023-05-10T13:57:45;3.53;;;2.07;;
1262;SDS011;62267;50.112;8.704;2023-05-10T14:00:13;2.13;;;1.83;;
1262;SDS011;62267;50.112;8.704;2023-05-10T14:02:40;2.80;;;2.13;;
1262;SDS011;62267;50.112;8.704;2023-05-10T14:05:07;3.20;;;2.47;;
1262;SDS011;62267;50.112;8.704;2023-05-10T14:07:35;2.10;;;1.90;;
1262;SDS011;62267;50.112;8.704;2023-05-10T14:10:02;3.20;;;2.10;;
1262;SDS011;62267;50.112;8.704;2023-05-10T14:12:29;2.00;;;1.90;;
1262;SDS011;62267;50.112;8.704;2023-05-10T14:14:57;3.63;;;2.00;;
1262;SDS011;62267;50.112;8.704;2023-05-10T14:17:24;2.50;;;2.30;;
1262;SDS011;62267;50.112;8.704;2023-05-10T14:19:52;2.30;;;2.20;;
1262;SDS011;62267;50.112;8.704;2023-05-10T14:22:19;4.43;;;2.07;;
1262;SDS011;62267;50.112;8.704;2023-05-10T14:24:46;2.77;;;2.57;;
1262;SDS011;62267;50.112;8.704;2023-05-10T14:27:14;4.80;;;2.43;;
1262;SDS011;62267;50.112;8.704;2023-05-10T14:29:41;3.20;;;2.13;;
1262;SDS011;62267;50.112;8.704;2023-05-10T14:32:08;2.70;;;2.20;;
1262;SDS011;62267;50.112;8.704;2023-05-10T14:34:36;2.10;;;1.90;;
1262;SDS011;62267;50.112;8.704;2023-05-10T14:37:04;3.63;;;2.40;;
1262;SDS011;62267;50.112;8.704;2023-05-10T14:39:31;2.30;;;2.20;;
1262;SDS011;62267;50.112;8.704;2023-05-10T14:41:59;3.43;;;2.23;;
1262;SDS011;62267;50.112;8.704;2023-05-10T14:44:27;2.37;;;2.27;;
1262;SDS011;62267;50.112;8.704;2023-05-10T14:46:54;2.20;;;2.00;;
1262;SDS011;62267;50.112;8.704;2023-05-10T14:49:22;4.40;;;2.00;;
1262;SDS011;62267;50.112;8.704;2023-05-10T14:51:51;2.30;;;2.13;;
1262;SDS011;62267;50.112;8.704;2023-05-10T14:54:19;2.10;;;2.00;;
1262;SDS011;62267;50.112;8.704;2023-05-10T14:56:49;2.57;;;2.27;;
1262;SDS011;62267;50.112;8.704;2023-05-10T14:59:16;2.50;;;2.40;;
1262;SDS011;62267;50.112;8.704;2023-05-10T15:01:44;2.10;;;2.00;;
1262;SDS011;62267;50.112;8.704;2023-05-10T15:04:12;8.30;;;5.90;;
1262;SDS011;62267;50.112;8.704;2023-05-10T15:06:42;2.80;;;2.60;;
1262;SDS011;62267;50.112;8.704;2023-05-10T15:09:09;2.70;;;2.23;;
1262;SDS011;62267;50.112;8.704;2023-05-10T15:11:37;4.40;;;2.27;;
1262;SDS011;62267;50.112;8.704;2023-05-10T15:14:04;2.07;;;1.97;;
1262;SDS011;62267;50.112;8.704;2023-05-10T15:16:32;5.33;;;2.50;;
1262;SDS011;62267;50.112;8.704;2023-05-10T15:19:01;2.40;;;2.20;;
1262;SDS011;62267;50.112;8.704;2023-05-10T15:21:28;2.80;;;2.27;;
1262;SDS011;62267;50.112;8.704;2023-05-10T15:24:01;4.30;;;2.20;;
1262;SDS011;62267;50.112;8.704;2023-05-10T15:26:28;3.67;;;2.40;;
1262;SDS011;62267;50.112;8.704;2023-05-10T15:28:55;3.40;;;2.60;;
1262;SDS011;62267;50.112;8.704;2023-05-10T15:31:22;2.50;;;2.30;;
1262;SDS011;62267;50.112;8.704;2023-05-10T15:33:50;4.60;;;2.47;;
1262;SDS011;62267;50.112;8.704;2023-05-10T15:36:17;2.50;;;2.30;;
1262;SDS011;62267;50.112;8.704;2023-05-10T15:38:44;3.50;;;3.10;;